sensor_id;sensor_type;location;lat;lon;timestamp;pressure;altitude;pressure_sealevel;temperature;humidity
20077;BME280;12348;42.710;23.378;2023-02-02T00:01:15;95228.94;;;3.73;88.14
20077;BME280;12348;42.710;23.378;2023-02-02T00:03:42;95228.13;;;3.73;88.38
20077;BME280;12348;42.710;23.378;2023-02-02T00:06:08;95232.91;;;3.71;87.93
20077;BME280;12348;42.710;23.378;2023-02-02T00:08:36;95234.78;;;3.70;88.05
20077;BME280;12348;42.710;23.378;2023-02-02T00:11:04;95224.03;;;3.65;88.11
20077;BME280;12348;42.710;23.378;2023-02-02T00:13:32;95226.94;;;3.63;87.86
20077;BME280;12348;42.710;23.378;2023-02-02T00:19:03;95223.72;;;3.61;87.85
20077;BME280;12348;42.710;23.378;2023-02-02T00:21:31;95230.63;;;3.79;86.79
20077;BME280;12348;42.710;23.378;2023-02-02T00:23:58;95233.69;;;3.88;86.30
20077;BME280;12348;42.710;23.378;2023-02-02T00:26:26;95232.06;;;3.87;85.86
20077;BME280;12348;42.710;23.378;2023-02-02T00:28:54;95231.84;;;3.88;85.59
20077;BME280;12348;42.710;23.378;2023-02-02T00:31:22;95238.22;;;3.87;85.36
20077;BME280;12348;42.710;23.378;2023-02-02T00:33:49;95246.44;;;3.86;86.02
20077;BME280;12348;42.710;23.378;2023-02-02T00:36:17;95244.53;;;3.81;87.42
20077;BME280;12348;42.710;23.378;2023-02-02T00:38:44;95246.66;;;3.62;91.52
20077;BME280;12348;42.710;23.378;2023-02-02T00:41:11;95246.22;;;3.37;95.48
20077;BME280;12348;42.710;23.378;2023-02-02T00:43:38;95256.63;;;3.22;98.38
20077;BME280;12348;42.710;23.378;2023-02-02T00:46:09;95245.06;;;2.99;100.00
20077;BME280;12348;42.710;23.378;2023-02-02T00:48:37;95246.59;;;2.95;100.00
20077;BME280;12348;42.710;23.378;2023-02-02T00:51:04;95242.72;;;3.03;100.00
20077;BME280;12348;42.710;23.378;2023-02-02T00:53:30;95237.88;;;3.00;100.00
20077;BME280;12348;42.710;23.378;2023-02-02T00:55:57;95237.22;;;2.92;100.00
20077;BME280;12348;42.710;23.378;2023-02-02T00:58:24;95241.16;;;2.90;100.00
20077;BME280;12348;42.710;23.378;2023-02-02T01:00:51;95237.38;;;2.86;100.00
20077;BME280;12348;42.710;23.378;2023-02-02T01:03:19;95231.84;;;2.76;100.00
20077;BME280;12348;42.710;23.378;2023-02-02T01:05:46;95230.72;;;2.72;100.00
20077;BME280;12348;42.710;23.378;2023-02-02T01:08:14;95233.19;;;2.61;100.00
20077;BME280;12348;42.710;23.378;2023-02-02T01:10:41;95238.31;;;2.51;100.00
20077;BME280;12348;42.710;23.378;2023-02-02T01:13:07;95233.13;;;2.45;100.00
20077;BME280;12348;42.710;23.378;2023-02-02T01:15:35;95228.19;;;2.36;100.00
20077;BME280;12348;42.710;23.378;2023-02-02T01:18:02;95226.81;;;2.34;100.00
20077;BME280;12348;42.710;23.378;2023-02-02T01:20:30;95225.06;;;2.28;100.00
20077;BME280;12348;42.710;23.378;2023-02-02T01:22:57;95221.72;;;2.73;100.00
20077;BME280;12348;42.710;23.378;2023-02-02T01:25:24;95215.88;;;2.59;100.00
20077;BME280;12348;42.710;23.378;2023-02-02T01:27:51;95201.19;;;2.56;100.00
20077;BME280;12348;42.710;23.378;2023-02-02T01:30:18;95205.75;;;2.44;100.00
20077;BME280;12348;42.710;23.378;2023-02-02T01:32:45;95205.78;;;2.32;100.00
20077;BME280;12348;42.710;23.378;2023-02-02T01:35:12;95196.22;;;2.19;100.00
20077;BME280;12348;42.710;23.378;2023-02-02T01:37:40;95195.09;;;2.15;100.00
20077;BME280;12348;42.710;23.378;2023-02-02T01:40:09;95200.88;;;2.12;100.00
20077;BME280;12348;42.710;23.378;2023-02-02T01:42:36;95187.81;;;2.11;100.00
20077;BME280;12348;42.710;23.378;2023-02-02T01:45:30;95188.63;;;2.11;100.00
20077;BME280;12348;42.710;23.378;2023-02-02T01:47:57;95194.41;;;2.08;100.00
20077;BME280;12348;42.710;23.378;2023-02-02T01:50:28;95191.06;;;2.13;100.00
20077;BME280;12348;42.710;23.378;2023-02-02T01:52:59;95191.19;;;2.06;100.00
20077;BME280;12348;42.710;23.378;2023-02-02T01:55:28;95178.44;;;2.32;100.00
20077;BME280;12348;42.710;23.378;2023-02-02T01:57:58;95170.16;;;2.05;100.00
20077;BME280;12348;42.710;23.378;2023-02-02T02:00:26;95161.31;;;1.99;100.00
20077;BME280;12348;42.710;23.378;2023-02-02T02:02:56;95149.44;;;1.90;100.00
20077;BME280;12348;42.710;23.378;2023-02-02T02:05:27;95153.50;;;1.81;100.00
20077;BME280;12348;42.710;23.378;2023-02-02T02:08:03;95157.06;;;1.75;100.00
20077;BME280;12348;42.710;23.378;2023-02-02T02:10:32;95178.44;;;1.80;100.00
20077;BME280;12348;42.710;23.378;2023-02-02T02:12:59;95172.19;;;1.74;100.00
20077;BME280;12348;42.710;23.378;2023-02-02T02:15:30;95177.16;;;1.70;100.00
20077;BME280;12348;42.710;23.378;2023-02-02T02:18:26;95185.47;;;1.74;100.00
20077;BME280;12348;42.710;23.378;2023-02-02T02:27:56;95188.13;;;1.62;100.00
20077;BME280;12348;42.710;23.378;2023-02-02T02:30:51;95194.03;;;1.64;100.00
20077;BME280;12348;42.710;23.378;2023-02-02T02:33:24;95185.03;;;1.65;100.00
20077;BME280;12348;42.710;23.378;2023-02-02T02:35:59;95181.91;;;1.57;100.00
20077;BME280;12348;42.710;23.378;2023-02-02T02:38:33;95193.44;;;1.62;100.00
20077;BME280;12348;42.710;23.378;2023-02-02T02:41:04;95187.34;;;1.50;100.00
20077;BME280;12348;42.710;23.378;2023-02-02T02:43:37;95185.03;;;1.65;100.00
20077;BME280;12348;42.710;23.378;2023-02-02T02:46:05;95187.91;;;1.52;100.00
20077;BME280;12348;42.710;23.378;2023-02-02T02:48:34;95189.16;;;1.38;100.00
20077;BME280;12348;42.710;23.378;2023-02-02T02:51:05;95182.16;;;1.32;100.00
20077;BME280;12348;42.710;23.378;2023-02-02T02:53:33;95182.50;;;1.35;100.00
20077;BME280;12348;42.710;23.378;2023-02-02T02:56:08;95185.59;;;1.32;100.00
20077;BME280;12348;42.710;23.378;2023-02-02T02:58:45;95181.00;;;1.28;100.00
20077;BME280;12348;42.710;23.378;2023-02-02T03:01:19;95180.06;;;1.34;100.00
20077;BME280;12348;42.710;23.378;2023-02-02T03:03:57;95179.03;;;1.35;100.00
20077;BME280;12348;42.710;23.378;2023-02-02T03:06:28;95188.25;;;1.32;100.00
20077;BME280;12348;42.710;23.378;2023-02-02T03:09:03;95179.03;;;1.35;100.00
20077;BME280;12348;42.710;23.378;2023-02-02T03:11:33;95181.00;;;1.39;100.00
20077;BME280;12348;42.710;23.378;2023-02-02T03:14:01;95182.50;;;1.47;100.00
20077;BME280;12348;42.710;23.378;2023-02-02T03:16:28;95180.75;;;1.53;100.00
20077;BME280;12348;42.710;23.378;2023-02-02T03:18:57;95171.16;;;1.63;100.00
20077;BME280;12348;42.710;23.378;2023-02-02T03:21:23;95172.81;;;1.64;100.00
20077;BME280;12348;42.710;23.378;2023-02-02T03:23:50;95179.59;;;1.60;100.00
20077;BME280;12348;42.710;23.378;2023-02-02T03:26:17;95183.75;;;1.56;100.00
20077;BME280;12348;42.710;23.378;2023-02-02T03:28:44;95184.56;;;1.45;100.00
20077;BME280;12348;42.710;23.378;2023-02-02T03:31:11;95193.81;;;1.31;100.00
20077;BME280;12348;42.710;23.378;2023-02-02T03:33:39;95190.91;;;1.09;100.00
20077;BME280;12348;42.710;23.378;2023-02-02T03:36:08;95187.81;;;0.82;100.00
20077;BME280;12348;42.710;23.378;2023-02-02T03:38:37;95196.25;;;0.79;100.00
20077;BME280;12348;42.710;23.378;2023-02-02T03:41:05;95196.56;;;0.70;100.00
20077;BME280;12348;42.710;23.378;2023-02-02T03:43:32;95196.50;;;0.59;100.00
20077;BME280;12348;42.710;23.378;2023-02-02T03:46:00;95192.69;;;0.55;100.00
20077;BME280;12348;42.710;23.378;2023-02-02T03:48:29;95202.38;;;0.49;100.00
20077;BME280;12348;42.710;23.378;2023-02-02T03:50:56;95198.56;;;0.45;100.00
20077;BME280;12348;42.710;23.378;2023-02-02T03:53:24;95200.28;;;0.51;100.00
20077;BME280;12348;42.710;23.378;2023-02-02T03:55:51;95199.25;;;0.52;100.00
20077;BME280;12348;42.710;23.378;2023-02-02T03:58:19;95195.00;;;0.51;100.00
20077;BME280;12348;42.710;23.378;2023-02-02T04:00:47;95210.53;;;0.47;100.00
20077;BME280;12348;42.710;23.378;2023-02-02T04:03:13;95203.34;;;0.36;100.00
20077;BME280;12348;42.710;23.378;2023-02-02T04:05:40;95197.13;;;0.31;100.00
20077;BME280;12348;42.710;23.378;2023-02-02T04:08:07;95192.19;;;0.76;100.00
20077;BME280;12348;42.710;23.378;2023-02-02T04:10:35;95193.19;;;0.63;100.00
20077;BME280;12348;42.710;23.378;2023-02-02T04:13:04;95192.66;;;0.43;100.00
20077;BME280;12348;42.710;23.378;2023-02-02T04:15:30;95199.81;;;0.42;100.00
20077;BME280;12348;42.710;23.378;2023-02-02T04:17:57;95196.31;;;0.30;100.00
20077;BME280;12348;42.710;23.378;2023-02-02T04:20:24;95200.72;;;0.18;100.00
20077;BME280;12348;42.710;23.378;2023-02-02T04:22:51;95202.06;;;0.09;100.00
20077;BME280;12348;42.710;23.378;2023-02-02T04:25:19;95201.47;;;0.07;100.00
20077;BME280;12348;42.710;23.378;2023-02-02T04:27:47;95206.38;;;0.03;100.00
20077;BME280;12348;42.710;23.378;2023-02-02T04:30:15;95201.09;;;0.03;100.00
20077;BME280;12348;42.710;23.378;2023-02-02T04:32:44;95209.09;;;0.15;100.00
20077;BME280;12348;42.710;23.378;2023-02-02T04:35:11;95197.34;;;0.11;100.00
20077;BME280;12348;42.710;23.378;2023-02-02T04:37:38;95190.28;;;0.23;100.00
20077;BME280;12348;42.710;23.378;2023-02-02T04:40:06;95196.50;;;0.29;100.00
20077;BME280;12348;42.710;23.378;2023-02-02T04:42:32;95199.66;;;0.37;100.00
20077;BME280;12348;42.710;23.378;2023-02-02T04:45:01;95207.59;;;0.37;100.00
20077;BME280;12348;42.710;23.378;2023-02-02T04:47:27;95210.75;;;0.46;100.00
20077;BME280;12348;42.710;23.378;2023-02-02T04:49:54;95212.28;;;0.54;100.00
20077;BME280;12348;42.710;23.378;2023-02-02T04:52:21;95212.06;;;0.55;100.00
20077;BME280;12348;42.710;23.378;2023-02-02T04:54:48;95213.00;;;0.61;100.00
20077;BME280;12348;42.710;23.378;2023-02-02T04:57:14;95215.56;;;0.67;100.00
20077;BME280;12348;42.710;23.378;2023-02-02T04:59:42;95207.50;;;0.74;100.00
20077;BME280;12348;42.710;23.378;2023-02-02T05:02:10;95216.97;;;0.82;100.00
20077;BME280;12348;42.710;23.378;2023-02-02T05:04:37;95218.34;;;0.72;100.00
20077;BME280;12348;42.710;23.378;2023-02-02T05:07:03;95213.84;;;0.73;100.00
20077;BME280;12348;42.710;23.378;2023-02-02T05:09:30;95209.69;;;0.65;100.00
20077;BME280;12348;42.710;23.378;2023-02-02T05:11:57;95211.97;;;0.62;100.00
20077;BME280;12348;42.710;23.378;2023-02-02T05:14:24;95205.50;;;0.58;100.00
20077;BME280;12348;42.710;23.378;2023-02-02T05:16:51;95217.78;;;0.52;100.00
20077;BME280;12348;42.710;23.378;2023-02-02T05:19:20;95216.78;;;0.53;100.00
20077;BME280;12348;42.710;23.378;2023-02-02T05:21:46;95210.69;;;0.53;100.00
20077;BME280;12348;42.710;23.378;2023-02-02T05:24:14;95209.47;;;0.48;100.00
20077;BME280;12348;42.710;23.378;2023-02-02T05:26:41;95214.75;;;0.37;100.00
20077;BME280;12348;42.710;23.378;2023-02-02T05:29:07;95221.13;;;0.47;100.00
20077;BME280;12348;42.710;23.378;2023-02-02T05:31:34;95222.69;;;0.67;100.00
20077;BME280;12348;42.710;23.378;2023-02-02T05:34:02;95224.09;;;0.39;100.00
20077;BME280;12348;42.710;23.378;2023-02-02T05:36:33;95233.88;;;0.20;100.00
20077;BME280;12348;42.710;23.378;2023-02-02T05:38:59;95232.13;;;-0.04;100.00
20077;BME280;12348;42.710;23.378;2023-02-02T05:41:26;95233.88;;;-0.16;100.00
20077;BME280;12348;42.710;23.378;2023-02-02T05:43:53;95244.41;;;-0.28;100.00
20077;BME280;12348;42.710;23.378;2023-02-02T05:46:20;95232.25;;;-0.36;100.00
20077;BME280;12348;42.710;23.378;2023-02-02T05:48:46;95244.06;;;-0.38;100.00
20077;BME280;12348;42.710;23.378;2023-02-02T05:51:15;95239.53;;;-0.31;100.00
20077;BME280;12348;42.710;23.378;2023-02-02T05:53:46;95239.25;;;-0.23;100.00
20077;BME280;12348;42.710;23.378;2023-02-02T05:56:13;95239.13;;;0.27;100.00
20077;BME280;12348;42.710;23.378;2023-02-02T05:58:40;95247.28;;;1.16;100.00
20077;BME280;12348;42.710;23.378;2023-02-02T06:01:07;95231.94;;;2.52;100.00
20077;BME280;12348;42.710;23.378;2023-02-02T06:03:35;95220.34;;;3.49;100.00
20077;BME280;12348;42.710;23.378;2023-02-02T06:06:02;95228.41;;;3.71;100.00
20077;BME280;12348;42.710;23.378;2023-02-02T06:08:29;95220.25;;;3.10;100.00
20077;BME280;12348;42.710;23.378;2023-02-02T06:10:57;95226.25;;;2.60;100.00
20077;BME280;12348;42.710;23.378;2023-02-02T06:13:23;95235.53;;;2.58;100.00
20077;BME280;12348;42.710;23.378;2023-02-02T06:15:50;95233.47;;;3.73;100.00
20077;BME280;12348;42.710;23.378;2023-02-02T06:18:18;95224.03;;;4.92;100.00
20077;BME280;12348;42.710;23.378;2023-02-02T06:20:44;95233.19;;;4.52;100.00
20077;BME280;12348;42.710;23.378;2023-02-02T06:23:11;95248.72;;;3.60;100.00
20077;BME280;12348;42.710;23.378;2023-02-02T06:25:38;95246.34;;;3.13;100.00
20077;BME280;12348;42.710;23.378;2023-02-02T06:28:07;95251.31;;;2.64;100.00
20077;BME280;12348;42.710;23.378;2023-02-02T06:30:34;95251.91;;;2.66;100.00
20077;BME280;12348;42.710;23.378;2023-02-02T06:33:00;95257.16;;;2.38;100.00
20077;BME280;12348;42.710;23.378;2023-02-02T06:35:27;95256.88;;;2.11;100.00
20077;BME280;12348;42.710;23.378;2023-02-02T06:37:54;95268.78;;;1.85;100.00
20077;BME280;12348;42.710;23.378;2023-02-02T06:40:21;95269.25;;;1.82;100.00
20077;BME280;12348;42.710;23.378;2023-02-02T06:42:54;95277.66;;;1.90;100.00
20077;BME280;12348;42.710;23.378;2023-02-02T06:45:22;95273.28;;;1.84;100.00
20077;BME280;12348;42.710;23.378;2023-02-02T06:47:49;95269.00;;;1.72;100.00
20077;BME280;12348;42.710;23.378;2023-02-02T06:50:16;95276.41;;;1.81;100.00
20077;BME280;12348;42.710;23.378;2023-02-02T06:52:46;95276.31;;;1.76;100.00
20077;BME280;12348;42.710;23.378;2023-02-02T06:55:13;95279.06;;;1.81;100.00
20077;BME280;12348;42.710;23.378;2023-02-02T06:57:41;95278.25;;;1.81;100.00
20077;BME280;12348;42.710;23.378;2023-02-02T07:00:09;95279.16;;;1.75;100.00
20077;BME280;12348;42.710;23.378;2023-02-02T07:02:37;95277.44;;;1.80;100.00
20077;BME280;12348;42.710;23.378;2023-02-02T07:05:05;95289.56;;;1.88;100.00
20077;BME280;12348;42.710;23.378;2023-02-02T07:07:32;95288.41;;;1.96;100.00
20077;BME280;12348;42.710;23.378;2023-02-02T07:09:59;95282.19;;;2.02;100.00
20077;BME280;12348;42.710;23.378;2023-02-02T07:12:26;95289.91;;;1.91;100.00
20077;BME280;12348;42.710;23.378;2023-02-02T07:14:53;95284.25;;;1.88;100.00
20077;BME280;12348;42.710;23.378;2023-02-02T07:17:20;95283.47;;;1.87;100.00
20077;BME280;12348;42.710;23.378;2023-02-02T07:19:48;95284.97;;;1.95;100.00
20077;BME280;12348;42.710;23.378;2023-02-02T07:22:14;95289.78;;;2.10;100.00
20077;BME280;12348;42.710;23.378;2023-02-02T07:24:41;95283.31;;;2.17;100.00
20077;BME280;12348;42.710;23.378;2023-02-02T07:27:08;95280.31;;;2.26;100.00
20077;BME280;12348;42.710;23.378;2023-02-02T07:29:35;95279.72;;;2.24;100.00
20077;BME280;12348;42.710;23.378;2023-02-02T07:32:01;95296.34;;;2.19;100.00
20077;BME280;12348;42.710;23.378;2023-02-02T07:34:28;95293.50;;;2.21;100.00
20077;BME280;12348;42.710;23.378;2023-02-02T07:36:57;95300.13;;;2.35;100.00
20077;BME280;12348;42.710;23.378;2023-02-02T07:39:24;95292.00;;;2.94;100.00
20077;BME280;12348;42.710;23.378;2023-02-02T07:41:51;95288.00;;;4.43;100.00
20077;BME280;12348;42.710;23.378;2023-02-02T07:44:17;95281.34;;;6.02;100.00
20077;BME280;12348;42.710;23.378;2023-02-02T07:46:45;95273.34;;;7.18;86.40
20077;BME280;12348;42.710;23.378;2023-02-02T07:49:13;95259.94;;;7.23;82.23
20077;BME280;12348;42.710;23.378;2023-02-02T07:51:40;95271.91;;;6.32;83.04
20077;BME280;12348;42.710;23.378;2023-02-02T07:54:09;95261.84;;;7.43;82.63
20077;BME280;12348;42.710;23.378;2023-02-02T07:56:36;95258.13;;;7.90;75.89
20077;BME280;12348;42.710;23.378;2023-02-02T07:59:03;95259.28;;;8.79;74.07
20077;BME280;12348;42.710;23.378;2023-02-02T08:01:30;95250.72;;;11.44;67.07
20077;BME280;12348;42.710;23.378;2023-02-02T08:03:57;95239.25;;;13.69;57.14
20077;BME280;12348;42.710;23.378;2023-02-02T08:06:26;95241.38;;;13.95;51.41
20077;BME280;12348;42.710;23.378;2023-02-02T08:08:55;95234.97;;;14.44;49.28
20077;BME280;12348;42.710;23.378;2023-02-02T08:11:24;95238.66;;;15.45;48.07
20077;BME280;12348;42.710;23.378;2023-02-02T08:13:53;95233.88;;;15.60;45.58
20077;BME280;12348;42.710;23.378;2023-02-02T08:16:21;95236.91;;;15.41;45.05
20077;BME280;12348;42.710;23.378;2023-02-02T08:18:48;95238.22;;;16.04;44.34
20077;BME280;12348;42.710;23.378;2023-02-02T08:21:16;95218.50;;;15.12;44.39
20077;BME280;12348;42.710;23.378;2023-02-02T08:23:43;95222.66;;;14.61;45.28
20077;BME280;12348;42.710;23.378;2023-02-02T08:26:13;95222.59;;;13.76;45.99
20077;BME280;12348;42.710;23.378;2023-02-02T08:28:43;95218.78;;;12.77;48.27
20077;BME280;12348;42.710;23.378;2023-02-02T08:31:14;95222.63;;;13.40;48.19
20077;BME280;12348;42.710;23.378;2023-02-02T08:33:41;95215.78;;;13.56;47.58
20077;BME280;12348;42.710;23.378;2023-02-02T08:36:10;95217.13;;;14.12;47.41
20077;BME280;12348;42.710;23.378;2023-02-02T08:38:37;95202.28;;;14.72;46.62
20077;BME280;12348;42.710;23.378;2023-02-02T08:41:05;95198.28;;;15.35;45.26
20077;BME280;12348;42.710;23.378;2023-02-02T08:43:33;95197.00;;;15.93;43.97
20077;BME280;12348;42.710;23.378;2023-02-02T08:46:01;95188.69;;;16.07;43.63
20077;BME280;12348;42.710;23.378;2023-02-02T08:48:28;95183.69;;;16.65;42.62
20077;BME280;12348;42.710;23.378;2023-02-02T08:50:56;95179.88;;;17.04;40.79
20077;BME280;12348;42.710;23.378;2023-02-02T08:53:24;95192.09;;;16.51;41.70
20077;BME280;12348;42.710;23.378;2023-02-02T08:55:57;95188.22;;;16.99;40.51
20077;BME280;12348;42.710;23.378;2023-02-02T08:58:24;95189.97;;;15.40;42.93
20077;BME280;12348;42.710;23.378;2023-02-02T09:00:51;95184.91;;;15.73;40.28
20077;BME280;12348;42.710;23.378;2023-02-02T09:03:20;95190.75;;;16.10;39.19
20077;BME280;12348;42.710;23.378;2023-02-02T09:05:46;95191.78;;;16.35;38.84
20077;BME280;12348;42.710;23.378;2023-02-02T09:08:13;95188.84;;;16.11;38.58
20077;BME280;12348;42.710;23.378;2023-02-02T09:10:40;95179.53;;;17.06;37.61
20077;BME280;12348;42.710;23.378;2023-02-02T09:13:07;95173.28;;;17.05;38.19
20077;BME280;12348;42.710;23.378;2023-02-02T09:15:33;95173.53;;;17.42;36.71
20077;BME280;12348;42.710;23.378;2023-02-02T09:18:00;95166.94;;;16.54;37.75
20077;BME280;12348;42.710;23.378;2023-02-02T09:20:29;95171.31;;;15.91;38.42
20077;BME280;12348;42.710;23.378;2023-02-02T09:22:57;95182.47;;;14.63;40.15
20077;BME280;12348;42.710;23.378;2023-02-02T09:25:24;95182.13;;;14.24;41.74
20077;BME280;12348;42.710;23.378;2023-02-02T09:27:51;95171.81;;;14.66;41.32
20077;BME280;12348;42.710;23.378;2023-02-02T09:30:19;95173.38;;;16.03;41.04
20077;BME280;12348;42.710;23.378;2023-02-02T09:32:47;95164.28;;;16.45;39.31
20077;BME280;12348;42.710;23.378;2023-02-02T09:35:15;95161.44;;;16.33;39.67
20077;BME280;12348;42.710;23.378;2023-02-02T09:37:43;95154.94;;;16.17;39.78
20077;BME280;12348;42.710;23.378;2023-02-02T09:40:14;95155.19;;;15.77;40.44
20077;BME280;12348;42.710;23.378;2023-02-02T09:42:58;95163.03;;;14.29;42.36
20077;BME280;12348;42.710;23.378;2023-02-02T09:45:38;95162.88;;;13.72;43.77
20077;BME280;12348;42.710;23.378;2023-02-02T09:48:19;95156.78;;;15.09;41.88
20077;BME280;12348;42.710;23.378;2023-02-02T09:50:53;95143.25;;;16.63;39.78
20077;BME280;12348;42.710;23.378;2023-02-02T09:53:29;95142.13;;;16.64;39.40
20077;BME280;12348;42.710;23.378;2023-02-02T09:56:00;95134.47;;;16.96;39.46
20077;BME280;12348;42.710;23.378;2023-02-02T09:58:32;95138.56;;;16.81;39.51
20077;BME280;12348;42.710;23.378;2023-02-02T10:01:05;95130.44;;;15.26;41.02
20077;BME280;12348;42.710;23.378;2023-02-02T10:03:36;95122.56;;;16.03;40.91
20077;BME280;12348;42.710;23.378;2023-02-02T10:06:13;95130.56;;;15.04;41.86
20077;BME280;12348;42.710;23.378;2023-02-02T10:08:45;95124.25;;;14.51;42.11
20077;BME280;12348;42.710;23.378;2023-02-02T10:11:31;95119.53;;;13.64;42.48
20077;BME280;12348;42.710;23.378;2023-02-02T10:14:01;95117.78;;;13.90;41.96
20077;BME280;12348;42.710;23.378;2023-02-02T10:16:31;95112.50;;;14.25;40.90
20077;BME280;12348;42.710;23.378;2023-02-02T10:19:02;95110.97;;;13.48;42.15
20077;BME280;12348;42.710;23.378;2023-02-02T10:21:34;95111.94;;;13.07;42.72
20077;BME280;12348;42.710;23.378;2023-02-02T10:24:13;95094.53;;;12.63;43.55
20077;BME280;12348;42.710;23.378;2023-02-02T10:26:45;95103.63;;;12.67;43.17
20077;BME280;12348;42.710;23.378;2023-02-02T10:29:15;95097.63;;;12.43;43.86
20077;BME280;12348;42.710;23.378;2023-02-02T10:31:49;95100.16;;;12.25;44.57
20077;BME280;12348;42.710;23.378;2023-02-02T10:34:24;95098.41;;;11.09;46.53
20077;BME280;12348;42.710;23.378;2023-02-02T10:37:01;95091.78;;;11.67;46.27
20077;BME280;12348;42.710;23.378;2023-02-02T10:39:42;95092.63;;;12.50;45.08
20077;BME280;12348;42.710;23.378;2023-02-02T10:42:18;95068.91;;;12.60;44.64
20077;BME280;12348;42.710;23.378;2023-02-02T10:44:52;95069.66;;;13.11;43.26
20077;BME280;12348;42.710;23.378;2023-02-02T10:47:23;95061.66;;;13.06;42.69
20077;BME280;12348;42.710;23.378;2023-02-02T10:49:58;95059.53;;;13.39;42.73
20077;BME280;12348;42.710;23.378;2023-02-02T10:52:31;95054.50;;;14.26;40.59
20077;BME280;12348;42.710;23.378;2023-02-02T10:55:05;95043.03;;;14.12;40.72
20077;BME280;12348;42.710;23.378;2023-02-02T10:57:44;95028.19;;;14.00;40.39
20077;BME280;12348;42.710;23.378;2023-02-02T11:00:18;95039.41;;;14.34;40.51
20077;BME280;12348;42.710;23.378;2023-02-02T11:02:46;95035.81;;;15.42;39.07
20077;BME280;12348;42.710;23.378;2023-02-02T11:05:19;95046.94;;;15.58;39.10
20077;BME280;12348;42.710;23.378;2023-02-02T11:08:24;95031.59;;;15.62;38.18
20077;BME280;12348;42.710;23.378;2023-02-02T11:10:55;95031.97;;;15.43;39.04
20077;BME280;12348;42.710;23.378;2023-02-02T11:13:29;95027.09;;;15.84;38.73
20077;BME280;12348;42.710;23.378;2023-02-02T11:16:17;95027.00;;;15.37;38.88
20077;BME280;12348;42.710;23.378;2023-02-02T11:18:46;95009.66;;;15.20;38.89
20077;BME280;12348;42.710;23.378;2023-02-02T11:21:18;95005.81;;;15.39;39.48
20077;BME280;12348;42.710;23.378;2023-02-02T11:23:53;95007.53;;;15.43;38.71
20077;BME280;12348;42.710;23.378;2023-02-02T11:26:23;95004.78;;;15.69;37.90
20077;BME280;12348;42.710;23.378;2023-02-02T11:28:51;94992.63;;;14.50;38.83
20077;BME280;12348;42.710;23.378;2023-02-02T11:31:30;94985.56;;;15.27;38.70
20077;BME280;12348;42.710;23.378;2023-02-02T11:34:08;94986.97;;;15.34;38.67
20077;BME280;12348;42.710;23.378;2023-02-02T11:36:35;94986.91;;;15.68;37.73
20077;BME280;12348;42.710;23.378;2023-02-02T11:39:23;94982.78;;;15.45;38.35
20077;BME280;12348;42.710;23.378;2023-02-02T11:41:58;94987.19;;;14.94;38.31
20077;BME280;12348;42.710;23.378;2023-02-02T11:44:26;94970.44;;;14.92;39.07
20077;BME280;12348;42.710;23.378;2023-02-02T11:46:53;94970.22;;;15.32;38.11
20077;BME280;12348;42.710;23.378;2023-02-02T11:49:22;94971.94;;;15.92;37.95
20077;BME280;12348;42.710;23.378;2023-02-02T11:51:57;94968.75;;;15.34;37.68
20077;BME280;12348;42.710;23.378;2023-02-02T11:54:26;94940.00;;;15.50;37.82
20077;BME280;12348;42.710;23.378;2023-02-02T11:56:58;94941.69;;;15.72;37.97
20077;BME280;12348;42.710;23.378;2023-02-02T11:59:31;94945.06;;;15.69;37.91
20077;BME280;12348;42.710;23.378;2023-02-02T12:02:21;94932.72;;;15.25;38.04
20077;BME280;12348;42.710;23.378;2023-02-02T12:04:49;94940.97;;;14.90;38.68
20077;BME280;12348;42.710;23.378;2023-02-02T12:07:17;94931.69;;;14.48;39.74
20077;BME280;12348;42.710;23.378;2023-02-02T12:09:45;94939.00;;;14.21;39.55
20077;BME280;12348;42.710;23.378;2023-02-02T12:12:27;94936.94;;;13.52;40.84
20077;BME280;12348;42.710;23.378;2023-02-02T12:15:03;94937.56;;;12.28;42.79
20077;BME280;12348;42.710;23.378;2023-02-02T12:17:35;94947.16;;;11.84;43.44
20077;BME280;12348;42.710;23.378;2023-02-02T12:20:14;94937.06;;;11.49;43.74
20077;BME280;12348;42.710;23.378;2023-02-02T12:22:57;94927.50;;;10.82;44.63
20077;BME280;12348;42.710;23.378;2023-02-02T12:25:40;94953.25;;;10.37;45.36
20077;BME280;12348;42.710;23.378;2023-02-02T12:28:22;94942.13;;;10.06;46.35
20077;BME280;12348;42.710;23.378;2023-02-02T12:30:56;94944.88;;;10.01;46.83
20077;BME280;12348;42.710;23.378;2023-02-02T12:33:32;94956.72;;;10.00;47.08
20077;BME280;12348;42.710;23.378;2023-02-02T12:36:23;94951.19;;;9.91;47.46
20077;BME280;12348;42.710;23.378;2023-02-02T12:39:03;94953.53;;;9.98;47.27
20077;BME280;12348;42.710;23.378;2023-02-02T12:41:44;94952.94;;;10.01;46.68
20077;BME280;12348;42.710;23.378;2023-02-02T12:44:17;94943.13;;;10.10;46.38
20077;BME280;12348;42.710;23.378;2023-02-02T12:46:57;94962.47;;;10.12;46.53
20077;BME280;12348;42.710;23.378;2023-02-02T12:49:51;94953.75;;;10.01;46.70
20077;BME280;12348;42.710;23.378;2023-02-02T12:52:34;94958.38;;;9.77;46.93
20077;BME280;12348;42.710;23.378;2023-02-02T12:55:13;94954.09;;;9.28;49.07
20077;BME280;12348;42.710;23.378;2023-02-02T12:57:49;94949.41;;;9.14;49.23
20077;BME280;12348;42.710;23.378;2023-02-02T13:00:46;94953.19;;;9.13;49.86
20077;BME280;12348;42.710;23.378;2023-02-02T13:03:33;94948.25;;;8.96;50.10
20077;BME280;12348;42.710;23.378;2023-02-02T13:09:00;94947.09;;;9.03;49.98
20077;BME280;12348;42.710;23.378;2023-02-02T13:11:37;94936.28;;;8.84;50.76
20077;BME280;12348;42.710;23.378;2023-02-02T13:14:09;94940.38;;;8.76;51.27
20077;BME280;12348;42.710;23.378;2023-02-02T13:16:42;94951.31;;;9.38;49.88
20077;BME280;12348;42.710;23.378;2023-02-02T13:19:17;94952.72;;;9.54;49.71